createdAt,value
2023-01-13T00:01:29.203Z,12.25
2023-01-13T00:03:58.727Z,12.15
2023-01-13T00:06:26.273Z,11.81
2023-01-13T00:08:53.344Z,12.06
2023-01-13T00:11:20.216Z,12.22
2023-01-13T00:13:47.192Z,12.44
2023-01-13T00:16:15.801Z,12.14
2023-01-13T00:18:42.625Z,11.57
2023-01-13T00:21:15.083Z,12.02
2023-01-13T00:23:42.248Z,12.16
2023-01-13T00:26:15.183Z,11.99
2023-01-13T00:28:41.900Z,12.38
2023-01-13T00:31:10.723Z,12.65
2023-01-13T00:33:38.174Z,12.56
2023-01-13T00:36:06.198Z,12.47
2023-01-13T00:38:34.938Z,12.53
2023-01-13T00:41:10.275Z,13.12
2023-01-13T00:43:37.669Z,12.40
2023-01-13T00:46:06.281Z,12.13
2023-01-13T00:48:33.798Z,12.32
2023-01-13T00:51:08.763Z,12.36
2023-01-13T00:53:44.402Z,12.10
2023-01-13T00:56:22.044Z,11.55
2023-01-13T00:58:54.110Z,11.42
2023-01-13T01:01:24.062Z,11.62
2023-01-13T01:03:52.583Z,11.36
2023-01-13T01:06:24.644Z,11.73
2023-01-13T01:08:52.066Z,11.92
2023-01-13T01:11:21.496Z,11.66
2023-01-13T01:13:48.781Z,11.16
2023-01-13T01:16:17.519Z,11.27
2023-01-13T01:18:45.991Z,11.40
2023-01-13T01:21:13.279Z,10.91
2023-01-13T01:23:40.281Z,10.87
2023-01-13T01:26:18.357Z,11.84
2023-01-13T01:28:45.590Z,11.67
2023-01-13T01:31:15.246Z,11.30
2023-01-13T01:33:42.046Z,11.36
2023-01-13T01:36:10.343Z,10.51
2023-01-13T01:38:37.236Z,10.44
2023-01-13T01:41:04.235Z,10.78
2023-01-13T01:44:03.879Z,11.05
2023-01-13T01:46:38.813Z,10.81
2023-01-13T01:49:17.639Z,10.50
2023-01-13T01:51:50.399Z,10.24
2023-01-13T01:54:23.746Z,9.87
2023-01-13T01:56:50.553Z,9.48
2023-01-13T01:59:17.276Z,8.70
2023-01-13T02:01:44.376Z,8.27
2023-01-13T02:04:17.818Z,8.39
2023-01-13T02:06:44.950Z,8.64
2023-01-13T02:09:12.449Z,8.81
2023-01-13T02:11:57.652Z,9.21
2023-01-13T02:14:27.256Z,8.81
2023-01-13T02:17:13.506Z,9.37
2023-01-13T02:19:43.204Z,8.64
2023-01-13T02:22:30.495Z,8.69
2023-01-13T02:25:35.867Z,9.33
2023-01-13T02:28:10.279Z,9.30
2023-01-13T02:31:18.985Z,9.24
2023-01-13T02:33:53.833Z,9.41
2023-01-13T02:36:32.444Z,9.70
2023-01-13T02:39:05.366Z,9.66
2023-01-13T02:42:17.646Z,10.09
2023-01-13T02:44:49.192Z,9.65
2023-01-13T02:47:22.597Z,9.78
2023-01-13T02:49:52.559Z,9.69
2023-01-13T02:52:25.222Z,9.58
2023-01-13T02:54:55.425Z,9.35
2023-01-13T02:57:23.326Z,9.64
2023-01-13T02:59:51.041Z,9.95
2023-01-13T03:02:20.522Z,10.10
2023-01-13T03:04:58.216Z,10.40
2023-01-13T03:08:02.419Z,10.04
2023-01-13T03:10:49.335Z,9.51
2023-01-13T03:13:26.169Z,9.62
2023-01-13T03:16:05.348Z,9.71
2023-01-13T03:18:46.129Z,9.83
2023-01-13T03:21:40.310Z,9.48
2023-01-13T03:24:31.481Z,9.39
2023-01-13T03:27:16.838Z,9.54
2023-01-13T03:29:46.820Z,9.47
2023-01-13T03:32:22.323Z,9.78
2023-01-13T03:34:55.772Z,9.49
2023-01-13T03:37:26.981Z,9.20
2023-01-13T03:40:04.728Z,9.25
2023-01-13T03:42:33.636Z,9.28
2023-01-13T03:45:09.310Z,9.45
2023-01-13T03:47:41.479Z,9.20
2023-01-13T03:50:14.195Z,9.09
2023-01-13T03:52:44.782Z,9.29
2023-01-13T03:55:20.144Z,9.09
2023-01-13T03:58:11.030Z,9.59
2023-01-13T04:00:42.252Z,8.85
2023-01-13T04:03:12.220Z,9.01
2023-01-13T04:05:42.484Z,8.88
2023-01-13T04:08:20.500Z,8.87
2023-01-13T04:11:02.401Z,8.71
2023-01-13T04:13:30.848Z,8.92
2023-01-13T04:15:57.379Z,9.09
2023-01-13T04:18:26.451Z,9.04
2023-01-13T04:20:54.763Z,9.03
2023-01-13T04:23:22.370Z,8.86
2023-01-13T04:25:49.617Z,8.85
2023-01-13T04:28:17.101Z,9.28
2023-01-13T04:30:44.286Z,8.96
2023-01-13T04:33:11.451Z,9.22
2023-01-13T04:35:38.419Z,8.82
2023-01-13T04:38:08.343Z,9.11
2023-01-13T04:40:35.099Z,8.81
2023-01-13T04:43:01.784Z,8.72
2023-01-13T04:45:28.220Z,8.83
2023-01-13T04:47:54.667Z,8.83
2023-01-13T04:50:22.574Z,8.77
2023-01-13T04:52:53.260Z,8.72
2023-01-13T04:55:21.373Z,8.61
2023-01-13T04:57:47.862Z,8.81
2023-01-13T05:00:16.219Z,8.70
2023-01-13T05:02:42.723Z,9.22
2023-01-13T05:05:09.921Z,8.78
2023-01-13T05:07:36.466Z,9.23
2023-01-13T05:10:03.475Z,8.81
2023-01-13T05:12:48.705Z,8.79
2023-01-13T05:15:34.322Z,8.89
2023-01-13T05:18:01.264Z,8.85
2023-01-13T05:20:27.716Z,8.77
2023-01-13T05:23:12.907Z,8.87
2023-01-13T05:25:43.430Z,8.94
2023-01-13T05:28:10.664Z,8.86
2023-01-13T05:30:42.460Z,8.73
2023-01-13T05:33:15.073Z,8.84
2023-01-13T05:35:43.220Z,8.60
2023-01-13T05:38:10.119Z,8.77
2023-01-13T05:40:56.748Z,8.68
2023-01-13T05:43:24.818Z,8.82
2023-01-13T05:45:51.350Z,8.84
2023-01-13T05:48:19.381Z,8.71
2023-01-13T05:50:46.617Z,8.87
2023-01-13T05:53:13.340Z,9.11
2023-01-13T05:55:41.005Z,9.15
2023-01-13T05:58:12.636Z,9.02
2023-01-13T06:00:41.016Z,9.10
2023-01-13T06:03:08.844Z,8.88
2023-01-13T06:05:35.457Z,8.93
2023-01-13T06:08:03.451Z,9.21
2023-01-13T06:10:30.398Z,8.81
2023-01-13T06:12:56.901Z,9.08
2023-01-13T06:15:23.788Z,8.91
2023-01-13T06:17:50.453Z,8.82
2023-01-13T06:20:17.710Z,8.76
2023-01-13T06:22:49.381Z,8.96
2023-01-13T06:25:24.891Z,8.84
2023-01-13T06:27:52.314Z,8.89
2023-01-13T06:30:19.038Z,8.61
2023-01-13T06:32:49.501Z,8.36
2023-01-13T06:35:19.067Z,8.95
2023-01-13T06:37:48.105Z,8.63
2023-01-13T06:40:15.164Z,8.59
2023-01-13T06:43:00.622Z,8.98
2023-01-13T06:45:29.096Z,8.90
2023-01-13T06:47:58.429Z,8.79
2023-01-13T06:50:25.100Z,8.83
2023-01-13T06:52:51.828Z,9.13
2023-01-13T06:55:18.288Z,8.74
2023-01-13T06:57:55.004Z,8.92
2023-01-13T07:00:23.213Z,8.89
2023-01-13T07:02:49.938Z,8.85
2023-01-13T07:05:17.616Z,9.23
2023-01-13T07:07:44.313Z,8.82
2023-01-13T07:10:13.224Z,8.99
2023-01-13T07:12:59.821Z,9.07
2023-01-13T07:15:27.141Z,8.46
2023-01-13T07:17:53.698Z,8.59
2023-01-13T07:20:20.148Z,9.08
2023-01-13T07:22:46.998Z,8.96
2023-01-13T07:25:13.631Z,8.67
2023-01-13T07:27:40.166Z,8.91
2023-01-13T07:30:07.711Z,8.93
2023-01-13T07:32:34.442Z,9.10
2023-01-13T07:35:05.307Z,8.77
2023-01-13T07:37:36.147Z,8.77
2023-01-13T07:40:04.258Z,8.85
2023-01-13T07:42:49.312Z,9.03
2023-01-13T07:45:15.861Z,8.99
2023-01-13T07:47:42.346Z,8.98
2023-01-13T07:50:09.335Z,8.58
2023-01-13T07:52:35.790Z,8.81
2023-01-13T07:55:02.243Z,9.18
2023-01-13T07:57:28.813Z,8.98
2023-01-13T07:59:55.389Z,9.16
2023-01-13T08:02:22.062Z,9.03
2023-01-13T08:04:48.651Z,9.42
2023-01-13T08:07:15.151Z,9.25
2023-01-13T08:09:41.580Z,9.25
2023-01-13T08:12:26.753Z,9.67
2023-01-13T08:14:54.102Z,9.47
2023-01-13T08:17:20.813Z,9.45
2023-01-13T08:19:47.506Z,9.74
2023-01-13T08:22:14.024Z,9.58
2023-01-13T08:24:40.488Z,9.49
2023-01-13T08:27:07.002Z,9.27
2023-01-13T08:29:33.492Z,9.42
2023-01-13T08:31:59.981Z,9.29
2023-01-13T08:34:26.457Z,9.37
2023-01-13T08:36:52.972Z,9.22
2023-01-13T08:39:19.505Z,9.33
2023-01-13T08:41:55.135Z,9.39
2023-01-13T08:44:26.904Z,9.67
2023-01-13T08:46:54.562Z,9.29
2023-01-13T08:49:21.747Z,9.17
2023-01-13T08:51:48.974Z,9.66
2023-01-13T08:54:16.333Z,9.65
2023-01-13T08:56:43.811Z,9.55
2023-01-13T08:59:18.977Z,9.29
2023-01-13T09:01:45.813Z,9.55
2023-01-13T09:04:20.529Z,9.32
2023-01-13T09:06:47.345Z,9.40
2023-01-13T09:09:13.916Z,9.03
2023-01-13T09:12:02.203Z,9.25
2023-01-13T09:14:31.033Z,9.33
2023-01-13T09:16:58.425Z,9.04
2023-01-13T09:19:25.793Z,9.03
2023-01-13T09:21:52.915Z,9.11
2023-01-13T09:24:20.281Z,9.13
2023-01-13T09:26:47.056Z,9.38
2023-01-13T09:29:13.743Z,9.49
2023-01-13T09:31:42.336Z,9.13
2023-01-13T09:34:33.038Z,8.91
2023-01-13T09:37:00.098Z,9.53
2023-01-13T09:39:26.584Z,9.50
2023-01-13T09:42:14.696Z,9.12
2023-01-13T09:44:55.703Z,9.45
2023-01-13T09:47:32.751Z,9.44
2023-01-13T09:50:15.373Z,9.41
2023-01-13T09:52:43.195Z,9.36
2023-01-13T09:55:36.560Z,9.19
2023-01-13T09:58:12.217Z,9.46
2023-01-13T10:00:45.247Z,9.39
2023-01-13T10:03:24.494Z,8.97
2023-01-13T10:05:56.619Z,9.20
2023-01-13T10:08:29.774Z,8.88
2023-01-13T10:10:59.380Z,9.34
2023-01-13T10:13:30.650Z,8.82
2023-01-13T10:16:15.426Z,9.17
2023-01-13T10:19:13.888Z,9.10
2023-01-13T10:22:03.461Z,9.05
2023-01-13T10:24:49.653Z,9.18
2023-01-13T10:27:37.591Z,9.06
2023-01-13T10:30:32.429Z,9.04
2023-01-13T10:33:01.235Z,9.03
2023-01-13T10:35:52.585Z,9.16
2023-01-13T10:38:30.301Z,8.87
2023-01-13T10:40:59.841Z,8.78
2023-01-13T10:43:27.688Z,8.82
2023-01-13T10:45:59.268Z,9.28
2023-01-13T10:48:34.743Z,9.07
2023-01-13T10:51:20.029Z,9.33
2023-01-13T10:53:55.820Z,9.10
2023-01-13T10:56:25.657Z,9.10
2023-01-13T10:58:52.529Z,9.29
2023-01-13T11:01:26.189Z,9.80
2023-01-13T11:03:54.358Z,9.65
2023-01-13T11:06:30.356Z,8.83
2023-01-13T11:08:58.504Z,9.08
2023-01-13T11:11:29.370Z,8.62
2023-01-13T11:14:16.996Z,8.60
2023-01-13T11:16:53.054Z,9.00
2023-01-13T11:19:21.400Z,9.16
2023-01-13T11:22:02.756Z,9.04
2023-01-13T11:24:40.472Z,8.92
2023-01-13T11:27:09.965Z,9.18
2023-01-13T11:30:14.916Z,9.40
2023-01-13T11:32:55.069Z,9.20
2023-01-13T11:35:21.906Z,9.09
2023-01-13T11:37:54.718Z,8.66
2023-01-13T11:40:24.237Z,9.17
2023-01-13T11:43:03.496Z,8.84
2023-01-13T11:45:49.765Z,9.03
2023-01-13T11:48:20.888Z,8.99
2023-01-13T11:51:05.580Z,9.42
2023-01-13T11:53:45.863Z,9.00
2023-01-13T11:56:46.439Z,9.39
2023-01-13T11:59:28.067Z,9.03
2023-01-13T12:02:13.241Z,9.07
2023-01-13T12:05:00.163Z,9.46
2023-01-13T12:08:00.667Z,8.93
2023-01-13T12:11:02.627Z,9.19
2023-01-13T12:13:51.609Z,9.39
2023-01-13T12:16:23.639Z,9.48
2023-01-13T12:18:59.185Z,9.61
2023-01-13T12:21:53.029Z,9.22
2023-01-13T12:24:33.931Z,9.24
2023-01-13T12:27:07.197Z,8.96
2023-01-13T12:29:36.204Z,9.25
2023-01-13T12:32:05.893Z,8.78
2023-01-13T12:34:47.691Z,9.07
2023-01-13T12:37:33.379Z,8.73
2023-01-13T12:40:05.938Z,9.11
2023-01-13T12:43:11.269Z,8.86
2023-01-13T12:45:37.786Z,8.89
2023-01-13T12:48:05.165Z,8.67
2023-01-13T12:50:31.577Z,8.81
2023-01-13T12:53:00.342Z,9.02
2023-01-13T12:55:28.692Z,9.21
2023-01-13T12:58:16.237Z,8.80
2023-01-13T13:00:44.730Z,9.11
2023-01-13T13:03:11.431Z,8.75
2023-01-13T13:06:15.310Z,9.13
2023-01-13T13:08:41.797Z,9.07
2023-01-13T13:11:54.938Z,9.00
2023-01-13T13:14:39.707Z,9.22
2023-01-13T13:17:28.203Z,9.01
2023-01-13T13:19:58.981Z,9.60
2023-01-13T13:22:28.461Z,9.19
2023-01-13T13:24:54.929Z,9.06
2023-01-13T13:27:27.687Z,9.23
2023-01-13T13:30:02.014Z,9.43
2023-01-13T13:32:40.578Z,9.56
2023-01-13T13:35:30.181Z,9.48
2023-01-13T13:38:40.704Z,9.48
2023-01-13T13:41:44.979Z,9.31
2023-01-13T13:44:38.049Z,9.28
2023-01-13T13:47:06.504Z,9.32
2023-01-13T13:49:42.378Z,9.10
2023-01-13T13:52:26.704Z,9.30
2023-01-13T13:54:56.756Z,9.70
2023-01-13T13:57:30.408Z,9.08
2023-01-13T13:59:59.035Z,8.83
2023-01-13T14:02:30.705Z,9.02
2023-01-13T14:05:23.349Z,9.00
2023-01-13T14:07:52.695Z,9.08
2023-01-13T14:10:27.676Z,9.12
2023-01-13T14:12:54.173Z,9.30
2023-01-13T14:15:38.822Z,9.12
2023-01-13T14:18:12.150Z,9.18
2023-01-13T14:20:38.814Z,9.20
2023-01-13T14:23:05.847Z,9.18
2023-01-13T14:25:39.818Z,9.47
2023-01-13T14:28:20.859Z,9.38
2023-01-13T14:30:47.689Z,9.14
2023-01-13T14:33:21.079Z,9.01
2023-01-13T14:36:07.292Z,8.88
2023-01-13T14:38:33.846Z,9.46
2023-01-13T14:41:12.176Z,9.60
2023-01-13T14:43:43.634Z,9.06
2023-01-13T14:46:10.278Z,9.06
2023-01-13T14:48:37.167Z,9.15
2023-01-13T14:51:06.704Z,9.44
2023-01-13T14:53:47.104Z,9.46
2023-01-13T14:56:43.101Z,9.28
2023-01-13T14:59:44.754Z,9.15
2023-01-13T15:02:29.546Z,9.30
2023-01-13T15:05:18.842Z,9.20
2023-01-13T15:07:55.097Z,9.34
2023-01-13T15:10:25.418Z,9.32
2023-01-13T15:12:53.194Z,9.25
2023-01-13T15:15:24.019Z,9.09
2023-01-13T15:17:51.432Z,8.87
2023-01-13T15:20:22.471Z,9.76
2023-01-13T15:22:49.893Z,8.80
2023-01-13T15:25:17.946Z,9.07
2023-01-13T15:27:46.057Z,9.05
2023-01-13T15:30:15.133Z,9.10
2023-01-13T15:32:42.308Z,9.26
2023-01-13T15:35:14.178Z,9.08
2023-01-13T15:37:41.725Z,9.02
2023-01-13T15:40:17.547Z,9.13
2023-01-13T15:43:02.739Z,8.78
2023-01-13T15:45:49.035Z,9.10
2023-01-13T15:48:15.623Z,9.23
2023-01-13T15:50:42.169Z,9.11
2023-01-13T15:53:14.282Z,8.72
2023-01-13T15:55:42.774Z,9.12
2023-01-13T15:58:13.268Z,8.88
2023-01-13T16:00:41.314Z,8.39
2023-01-13T16:03:12.953Z,7.29
2023-01-13T16:05:40.370Z,6.97
2023-01-13T16:08:27.103Z,7.29
2023-01-13T16:10:53.544Z,7.89
2023-01-13T16:13:20.027Z,8.32
2023-01-13T16:15:49.525Z,8.44
2023-01-13T16:18:21.124Z,7.98
2023-01-13T16:20:47.885Z,8.44
2023-01-13T16:23:14.414Z,8.62
2023-01-13T16:25:43.678Z,8.65
2023-01-13T16:28:20.114Z,9.03
2023-01-13T16:30:46.978Z,8.91
2023-01-13T16:33:13.580Z,8.33
2023-01-13T16:36:07.682Z,8.51
2023-01-13T16:38:26.557Z,8.58
2023-01-13T16:40:53.611Z,8.88
2023-01-13T16:43:20.082Z,8.84
2023-01-13T16:45:46.527Z,8.68
2023-01-13T16:48:19.553Z,8.50
2023-01-13T16:50:46.495Z,8.89
2023-01-13T16:53:13.058Z,9.32
2023-01-13T16:55:40.713Z,8.85
2023-01-13T16:58:15.625Z,8.59
2023-01-13T17:00:42.119Z,9.09
2023-01-13T17:03:09.079Z,8.59
2023-01-13T17:05:39.415Z,8.70
2023-01-13T17:08:06.448Z,8.67
2023-01-13T17:10:32.912Z,8.60
2023-01-13T17:13:04.518Z,9.00
2023-01-13T17:15:40.033Z,8.91
2023-01-13T17:18:06.489Z,8.67
2023-01-13T17:20:32.986Z,8.70
2023-01-13T17:22:59.598Z,8.71
2023-01-13T17:25:26.331Z,8.88
2023-01-13T17:27:52.774Z,8.67
2023-01-13T17:30:19.439Z,9.31
2023-01-13T17:32:45.872Z,8.65
2023-01-13T17:35:15.635Z,8.64
2023-01-13T17:37:42.087Z,8.50
2023-01-13T17:40:09.497Z,9.03
2023-01-13T17:42:37.231Z,8.95
2023-01-13T17:45:03.954Z,8.99
2023-01-13T17:47:30.378Z,8.72
2023-01-13T17:49:56.883Z,9.05
2023-01-13T17:52:23.379Z,8.86
2023-01-13T17:54:49.929Z,8.69
2023-01-13T17:57:16.375Z,8.85
2023-01-13T17:59:42.855Z,8.83
2023-01-13T18:02:11.826Z,8.62
2023-01-13T18:04:38.390Z,9.25
2023-01-13T18:07:06.270Z,9.09
2023-01-13T18:09:35.827Z,8.96
2023-01-13T18:12:02.393Z,9.34
2023-01-13T18:14:28.995Z,8.74
2023-01-13T18:16:55.706Z,9.38
2023-01-13T18:19:40.931Z,9.13
2023-01-13T18:22:32.273Z,8.80
2023-01-13T18:25:17.353Z,9.23
2023-01-13T18:27:43.946Z,8.57
2023-01-13T18:30:11.121Z,9.19
2023-01-13T18:32:37.640Z,8.96
2023-01-13T18:35:09.108Z,9.00
2023-01-13T18:37:38.633Z,8.83
2023-01-13T18:40:06.176Z,8.79
2023-01-13T18:42:51.548Z,8.93
2023-01-13T18:45:20.639Z,8.55
2023-01-13T18:47:47.159Z,9.00
2023-01-13T18:50:14.732Z,9.67
2023-01-13T18:52:41.698Z,9.41
2023-01-13T18:55:09.194Z,9.26
2023-01-13T18:57:42.717Z,8.93
2023-01-13T19:00:15.079Z,8.87
2023-01-13T19:02:41.761Z,9.09
2023-01-13T19:05:10.038Z,9.15
2023-01-13T19:07:36.784Z,9.17
2023-01-13T19:10:05.706Z,8.59
2023-01-13T19:12:33.839Z,9.03
2023-01-13T19:15:01.381Z,8.92
2023-01-13T19:17:32.055Z,9.04
2023-01-13T19:19:59.813Z,8.94
2023-01-13T19:22:30.262Z,9.01
2023-01-13T19:24:59.878Z,8.63
2023-01-13T19:27:27.573Z,9.01
2023-01-13T19:29:57.514Z,9.44
2023-01-13T19:32:24.604Z,9.17
2023-01-13T19:34:51.544Z,8.65
2023-01-13T19:37:18.973Z,9.09
2023-01-13T19:39:45.605Z,9.13
2023-01-13T19:42:35.749Z,9.36
2023-01-13T19:45:20.931Z,8.49
2023-01-13T19:47:47.392Z,9.00
2023-01-13T19:50:14.289Z,9.11
2023-01-13T19:52:41.944Z,9.29
2023-01-13T19:55:09.643Z,9.14
2023-01-13T19:57:36.994Z,9.32
2023-01-13T20:00:06.162Z,9.16
2023-01-13T20:02:32.741Z,9.25
2023-01-13T20:05:00.924Z,9.00
2023-01-13T20:07:29.982Z,8.88
2023-01-13T20:09:56.801Z,9.05
2023-01-13T20:12:24.637Z,8.67
2023-01-13T20:14:51.743Z,8.94
2023-01-13T20:17:20.216Z,9.37
2023-01-13T20:19:46.987Z,9.01
2023-01-13T20:22:14.004Z,9.24
2023-01-13T20:24:40.534Z,8.92
2023-01-13T20:27:07.141Z,9.41
2023-01-13T20:29:33.771Z,9.17
2023-01-13T20:32:00.513Z,9.53
2023-01-13T20:34:27.007Z,8.91
2023-01-13T20:36:53.532Z,8.81
2023-01-13T20:39:27.294Z,8.80
2023-01-13T20:42:12.877Z,9.22
2023-01-13T20:44:39.363Z,9.34
2023-01-13T20:47:06.422Z,9.30
2023-01-13T20:49:34.376Z,8.81
2023-01-13T20:52:01.103Z,8.62
2023-01-13T20:54:27.589Z,8.53
2023-01-13T20:56:54.096Z,8.77
2023-01-13T20:59:20.547Z,8.39
2023-01-13T21:01:47.118Z,8.84
2023-01-13T21:04:13.627Z,9.01
2023-01-13T21:06:41.598Z,8.83
2023-01-13T21:09:08.901Z,8.42
2023-01-13T21:11:54.031Z,9.34
2023-01-13T21:14:44.269Z,8.90
2023-01-13T21:17:38.714Z,8.68
2023-01-13T21:20:07.218Z,8.88
2023-01-13T21:22:33.693Z,9.04
2023-01-13T21:25:01.611Z,9.10
2023-01-13T21:27:28.530Z,8.94
2023-01-13T21:29:55.295Z,8.50
2023-01-13T21:32:22.093Z,9.18
2023-01-13T21:34:48.569Z,9.18
2023-01-13T21:37:15.998Z,8.92
2023-01-13T21:39:43.261Z,8.92
2023-01-13T21:42:35.516Z,8.85
2023-01-13T21:45:21.743Z,9.03
2023-01-13T21:47:48.488Z,9.16
2023-01-13T21:50:17.542Z,8.87
2023-01-13T21:52:48.255Z,8.93
2023-01-13T21:55:25.209Z,8.95
2023-01-13T21:58:13.746Z,8.69
2023-01-13T22:00:44.469Z,9.16
2023-01-13T22:03:12.445Z,8.77
2023-01-13T22:05:39.287Z,8.98
2023-01-13T22:08:06.502Z,8.84
2023-01-13T22:10:34.228Z,9.27
2023-01-13T22:13:23.435Z,8.99
2023-01-13T22:15:49.990Z,8.82
2023-01-13T22:18:18.859Z,9.13
2023-01-13T22:20:45.565Z,9.29
2023-01-13T22:23:12.177Z,8.95
2023-01-13T22:25:38.640Z,9.07
2023-01-13T22:28:06.161Z,9.26
2023-01-13T22:30:33.223Z,9.15
2023-01-13T22:33:00.282Z,9.20
2023-01-13T22:35:26.965Z,9.08
2023-01-13T22:37:53.421Z,9.33
2023-01-13T22:40:20.111Z,9.08
2023-01-13T22:42:46.611Z,9.29
2023-01-13T22:45:14.034Z,9.11
2023-01-13T22:47:40.683Z,9.22
2023-01-13T22:50:07.985Z,8.92
2023-01-13T22:52:35.337Z,9.25
2023-01-13T22:55:01.937Z,8.60
2023-01-13T22:57:46.613Z,9.11
2023-01-13T23:00:14.983Z,8.86
2023-01-13T23:02:41.718Z,8.91
2023-01-13T23:05:08.507Z,8.90
2023-01-13T23:07:35.656Z,8.38
2023-01-13T23:10:02.618Z,9.11
2023-01-13T23:12:29.088Z,8.97
2023-01-13T23:14:55.613Z,9.17
2023-01-13T23:17:22.060Z,8.86
2023-01-13T23:19:48.523Z,8.83
2023-01-13T23:22:15.615Z,8.96
2023-01-13T23:24:42.193Z,8.85
2023-01-13T23:27:08.681Z,8.93
2023-01-13T23:29:35.669Z,8.72
2023-01-13T23:32:02.150Z,8.85
2023-01-13T23:34:28.708Z,8.69
2023-01-13T23:36:55.169Z,8.96
2023-01-13T23:39:21.657Z,8.91
2023-01-13T23:41:48.138Z,8.47
2023-01-13T23:44:17.052Z,8.48
2023-01-13T23:46:43.510Z,8.85
2023-01-13T23:49:09.990Z,9.22
2023-01-13T23:51:36.430Z,8.80
2023-01-13T23:54:03.783Z,8.53
2023-01-13T23:56:32.734Z,9.00
2023-01-13T23:58:59.304Z,9.43
